createdAt,value
2022-11-16T00:02:13.109Z,10.83
2022-11-16T00:04:40.667Z,10.84
2022-11-16T00:07:08.481Z,10.89
2022-11-16T00:09:36.136Z,10.84
2022-11-16T00:12:07.298Z,10.87
2022-11-16T00:14:36.523Z,10.90
2022-11-16T00:17:04.948Z,10.88
2022-11-16T00:19:32.865Z,10.91
2022-11-16T00:22:00.443Z,10.76
2022-11-16T00:24:27.930Z,10.91
2022-11-16T00:26:56.368Z,10.93
2022-11-16T00:29:26.296Z,10.92
2022-11-16T00:31:54.703Z,10.95
2022-11-16T00:34:23.264Z,10.87
2022-11-16T00:36:51.161Z,10.90
2022-11-16T00:39:19.720Z,10.93
2022-11-16T00:41:48.327Z,10.95
2022-11-16T00:44:16.174Z,10.98
2022-11-16T00:46:43.847Z,10.95
2022-11-16T00:49:11.700Z,10.96
2022-11-16T00:51:39.523Z,10.95
2022-11-16T00:54:08.177Z,10.97
2022-11-16T00:56:36.385Z,10.98
2022-11-16T00:59:04.297Z,10.97
2022-11-16T01:01:31.930Z,11.01
2022-11-16T01:03:59.480Z,11.03
2022-11-16T01:06:26.961Z,11.01
2022-11-16T01:08:54.470Z,11.04
2022-11-16T01:11:41.819Z,10.96
2022-11-16T01:14:10.244Z,11.03
2022-11-16T01:16:38.140Z,11.01
2022-11-16T01:19:06.108Z,10.97
2022-11-16T01:21:34.737Z,10.98
2022-11-16T01:24:02.248Z,11.02
2022-11-16T01:26:29.789Z,11.02
2022-11-16T01:28:59.783Z,11.01
2022-11-16T01:31:27.290Z,11.03
2022-11-16T01:33:55.850Z,11.05
2022-11-16T01:36:23.643Z,11.03
2022-11-16T01:38:51.129Z,11.03
2022-11-16T01:41:24.790Z,11.04
2022-11-16T01:43:54.693Z,11.03
2022-11-16T01:46:22.759Z,11.00
2022-11-16T01:48:55.498Z,11.02
2022-11-16T01:51:24.075Z,11.02
2022-11-16T01:53:52.102Z,11.04
2022-11-16T01:56:19.756Z,11.01
2022-11-16T01:58:47.760Z,10.99
2022-11-16T02:01:15.401Z,10.97
2022-11-16T02:03:42.905Z,11.02
2022-11-16T02:06:31.566Z,11.06
2022-11-16T02:09:36.136Z,11.05
2022-11-16T02:12:41.845Z,11.03
2022-11-16T02:15:38.496Z,11.04
2022-11-16T02:18:34.885Z,11.06
2022-11-16T02:21:12.551Z,11.09
2022-11-16T02:24:01.279Z,11.07
2022-11-16T02:27:06.187Z,11.12
2022-11-16T02:29:38.429Z,11.11
2022-11-16T02:32:21.455Z,11.12
2022-11-16T02:35:08.510Z,11.15
2022-11-16T02:37:40.775Z,11.15
2022-11-16T02:40:10.896Z,11.14
2022-11-16T02:43:03.173Z,11.15
2022-11-16T02:45:36.367Z,11.16
2022-11-16T02:48:15.347Z,11.14
2022-11-16T02:50:44.824Z,11.12
2022-11-16T02:53:12.347Z,11.10
2022-11-16T02:55:39.806Z,11.10
2022-11-16T02:58:10.678Z,11.13
2022-11-16T03:00:49.941Z,11.13
2022-11-16T03:03:29.960Z,11.14
2022-11-16T03:06:04.969Z,11.13
2022-11-16T03:08:37.141Z,11.13
2022-11-16T03:11:27.259Z,11.12
2022-11-16T03:13:59.905Z,11.05
2022-11-16T03:16:37.834Z,11.07
2022-11-16T03:19:11.444Z,11.07
2022-11-16T03:21:42.556Z,11.08
2022-11-16T03:24:10.536Z,11.05
2022-11-16T03:26:54.401Z,11.07
2022-11-16T03:29:30.349Z,11.02
2022-11-16T03:32:04.080Z,10.93
2022-11-16T03:34:36.179Z,11.00
2022-11-16T03:37:05.045Z,10.97
2022-11-16T03:39:36.701Z,10.91
2022-11-16T03:42:13.929Z,10.90
2022-11-16T03:44:43.245Z,10.83
2022-11-16T03:47:10.736Z,10.82
2022-11-16T03:49:38.205Z,10.84
2022-11-16T03:52:06.405Z,10.78
2022-11-16T03:54:33.952Z,10.75
2022-11-16T03:57:01.576Z,10.71
2022-11-16T03:59:29.017Z,10.63
2022-11-16T04:01:56.477Z,10.62
2022-11-16T04:04:41.428Z,10.62
2022-11-16T04:07:28.021Z,10.57
2022-11-16T04:10:12.990Z,10.58
2022-11-16T04:13:02.362Z,10.54
2022-11-16T04:15:47.342Z,10.51
2022-11-16T04:18:32.452Z,10.51
2022-11-16T04:21:17.804Z,10.50
2022-11-16T04:24:04.517Z,10.47
2022-11-16T04:26:46.081Z,10.43
2022-11-16T04:29:14.861Z,10.42
2022-11-16T04:31:59.945Z,10.44
2022-11-16T04:34:45.228Z,10.44
2022-11-16T04:37:32.882Z,10.43
2022-11-16T04:40:00.338Z,10.44
2022-11-16T04:42:27.799Z,10.43
2022-11-16T04:45:12.757Z,10.41
2022-11-16T04:47:40.307Z,10.40
2022-11-16T04:50:08.241Z,10.42
2022-11-16T04:52:35.723Z,10.40
2022-11-16T04:55:03.367Z,10.41
2022-11-16T04:57:30.812Z,10.36
2022-11-16T04:59:58.319Z,10.40
2022-11-16T05:02:25.813Z,10.33
2022-11-16T05:04:53.277Z,10.34
2022-11-16T05:07:20.874Z,10.35
2022-11-16T05:09:49.693Z,10.33
2022-11-16T05:12:18.300Z,10.29
2022-11-16T05:14:46.795Z,10.28
2022-11-16T05:17:15.519Z,10.28
2022-11-16T05:20:00.600Z,10.25
2022-11-16T05:22:28.076Z,10.24
2022-11-16T05:24:55.714Z,10.20
2022-11-16T05:27:25.224Z,10.21
2022-11-16T05:29:52.773Z,10.20
2022-11-16T05:32:21.556Z,10.16
2022-11-16T05:34:49.625Z,10.18
2022-11-16T05:37:19.081Z,10.17
2022-11-16T05:39:46.525Z,10.18
2022-11-16T05:42:14.131Z,10.18
2022-11-16T05:44:41.582Z,10.15
2022-11-16T05:47:09.062Z,10.18
2022-11-16T05:49:36.536Z,10.10
2022-11-16T05:52:04.150Z,10.12
2022-11-16T05:54:31.678Z,10.09
2022-11-16T05:56:59.206Z,10.06
2022-11-16T05:59:27.707Z,10.06
2022-11-16T06:01:55.204Z,10.04
2022-11-16T06:04:24.345Z,9.98
2022-11-16T06:06:52.385Z,9.87
2022-11-16T06:09:20.076Z,9.91
2022-11-16T06:11:47.592Z,9.89
2022-11-16T06:14:15.102Z,9.85
2022-11-16T06:16:42.628Z,9.77
2022-11-16T06:19:10.101Z,9.72
2022-11-16T06:21:37.547Z,9.68
2022-11-16T06:24:08.886Z,9.65
2022-11-16T06:26:37.329Z,9.62
2022-11-16T06:29:05.315Z,9.58
2022-11-16T06:31:33.121Z,9.55
2022-11-16T06:34:00.682Z,9.50
2022-11-16T06:36:28.191Z,9.45
2022-11-16T06:38:55.662Z,9.40
2022-11-16T06:41:23.314Z,9.34
2022-11-16T06:43:50.784Z,9.31
2022-11-16T06:46:18.324Z,9.26
2022-11-16T06:48:45.828Z,9.26
2022-11-16T06:51:13.302Z,9.19
2022-11-16T06:53:40.821Z,9.19
2022-11-16T06:56:08.771Z,9.13
2022-11-16T06:58:36.643Z,9.09
2022-11-16T07:01:09.356Z,9.06
2022-11-16T07:03:36.798Z,8.98
2022-11-16T07:06:09.002Z,8.94
2022-11-16T07:08:36.785Z,8.89
2022-11-16T07:11:08.662Z,8.84
2022-11-16T07:13:37.961Z,8.80
2022-11-16T07:16:07.098Z,8.80
2022-11-16T07:18:36.773Z,8.74
2022-11-16T07:21:13.335Z,8.72
2022-11-16T07:23:41.086Z,8.71
2022-11-16T07:26:09.559Z,8.68
2022-11-16T07:28:37.893Z,8.64
2022-11-16T07:31:09.342Z,8.60
2022-11-16T07:33:37.481Z,8.63
2022-11-16T07:36:16.644Z,8.60
2022-11-16T07:38:44.297Z,8.57
2022-11-16T07:41:16.714Z,8.59
2022-11-16T07:43:48.487Z,8.56
2022-11-16T07:46:45.958Z,8.55
2022-11-16T07:49:11.497Z,8.54
2022-11-16T07:51:39.461Z,8.56
2022-11-16T07:54:07.217Z,8.56
2022-11-16T07:56:34.749Z,8.56
2022-11-16T07:59:02.389Z,8.54
2022-11-16T08:01:30.031Z,8.56
2022-11-16T08:03:57.588Z,8.52
2022-11-16T08:06:27.108Z,8.38
2022-11-16T08:08:58.290Z,8.57
2022-11-16T08:11:26.903Z,8.52
2022-11-16T08:13:54.603Z,8.62
2022-11-16T08:16:23.780Z,8.56
2022-11-16T08:18:51.664Z,8.53
2022-11-16T08:21:19.982Z,8.60
2022-11-16T08:23:47.853Z,8.62
2022-11-16T08:26:22.025Z,8.68
2022-11-16T08:28:53.652Z,8.63
2022-11-16T08:31:24.007Z,8.70
2022-11-16T08:33:51.989Z,8.74
2022-11-16T08:36:20.116Z,8.73
2022-11-16T08:38:49.393Z,8.78
2022-11-16T08:41:18.140Z,8.78
2022-11-16T08:43:47.150Z,8.80
2022-11-16T08:46:15.736Z,8.81
2022-11-16T08:48:43.382Z,8.81
2022-11-16T08:51:18.437Z,8.94
2022-11-16T08:53:48.384Z,8.93
2022-11-16T08:56:17.954Z,8.94
2022-11-16T08:58:47.139Z,8.98
2022-11-16T09:01:19.861Z,9.11
2022-11-16T09:03:47.862Z,9.11
2022-11-16T09:06:15.815Z,9.13
2022-11-16T09:08:45.886Z,9.21
2022-11-16T09:11:16.741Z,9.22
2022-11-16T09:13:45.659Z,9.28
2022-11-16T09:16:15.819Z,9.18
2022-11-16T09:18:45.566Z,9.24
2022-11-16T09:21:13.074Z,9.08
2022-11-16T09:23:40.530Z,9.25
2022-11-16T09:26:08.091Z,9.31
2022-11-16T09:28:35.809Z,9.37
2022-11-16T09:31:06.095Z,9.51
2022-11-16T09:33:35.373Z,9.54
2022-11-16T09:36:07.137Z,9.58
2022-11-16T09:39:13.970Z,9.66
2022-11-16T09:42:08.249Z,10.00
2022-11-16T09:44:57.455Z,10.02
2022-11-16T09:47:35.481Z,10.07
2022-11-16T09:50:06.297Z,10.06
2022-11-16T09:52:45.872Z,10.00
2022-11-16T09:55:37.767Z,9.98
2022-11-16T09:58:13.829Z,10.09
2022-11-16T10:00:48.029Z,10.26
2022-11-16T10:03:16.338Z,10.44
2022-11-16T10:06:02.819Z,10.64
2022-11-16T10:08:43.920Z,10.74
2022-11-16T10:11:31.468Z,10.87
2022-11-16T10:14:23.199Z,10.98
2022-11-16T10:16:55.405Z,10.64
2022-11-16T10:19:40.201Z,10.75
2022-11-16T10:22:32.179Z,10.72
2022-11-16T10:25:02.741Z,10.71
2022-11-16T10:27:48.793Z,10.83
2022-11-16T10:30:22.090Z,10.82
2022-11-16T10:33:06.693Z,10.86
2022-11-16T10:35:46.874Z,11.14
2022-11-16T10:38:17.025Z,11.31
2022-11-16T10:40:48.550Z,11.30
2022-11-16T10:43:19.076Z,11.27
2022-11-16T10:45:52.815Z,11.26
2022-11-16T10:48:46.616Z,11.56
2022-11-16T10:51:14.099Z,11.56
2022-11-16T10:53:43.800Z,11.69
2022-11-16T10:56:37.303Z,11.81
2022-11-16T10:59:07.439Z,11.51
2022-11-16T11:01:42.292Z,11.48
2022-11-16T11:04:29.959Z,11.70
2022-11-16T11:07:02.825Z,11.79
2022-11-16T11:09:41.706Z,11.97
2022-11-16T11:12:39.353Z,12.24
2022-11-16T11:15:13.349Z,12.25
2022-11-16T11:17:43.911Z,12.03
2022-11-16T11:20:17.699Z,12.10
2022-11-16T11:23:25.925Z,11.88
2022-11-16T11:26:01.263Z,12.15
2022-11-16T11:28:31.903Z,12.10
2022-11-16T11:31:03.780Z,12.41
2022-11-16T11:33:36.513Z,12.42
2022-11-16T11:36:21.519Z,12.69
2022-11-16T11:39:13.491Z,12.37
2022-11-16T11:41:43.761Z,12.59
2022-11-16T11:44:14.315Z,12.50
2022-11-16T11:47:35.291Z,12.49
2022-11-16T11:49:49.825Z,11.98
2022-11-16T11:52:43.608Z,11.93
2022-11-16T11:55:18.569Z,11.62
2022-11-16T11:57:48.757Z,11.55
2022-11-16T12:00:18.111Z,11.39
2022-11-16T12:03:10.086Z,11.30
2022-11-16T12:05:56.726Z,11.31
2022-11-16T12:08:54.657Z,11.09
2022-11-16T12:11:28.205Z,11.43
2022-11-16T12:14:26.166Z,11.70
2022-11-16T12:17:18.621Z,11.73
2022-11-16T12:20:29.088Z,11.75
2022-11-16T12:23:08.684Z,11.59
2022-11-16T12:26:12.755Z,11.65
2022-11-16T12:28:58.993Z,11.61
2022-11-16T12:31:54.853Z,11.67
2022-11-16T12:34:53.362Z,12.03
2022-11-16T12:37:42.190Z,12.20
2022-11-16T12:40:34.572Z,12.24
2022-11-16T12:43:20.811Z,12.49
2022-11-16T12:46:02.093Z,12.73
2022-11-16T12:48:54.061Z,12.43
2022-11-16T12:51:37.890Z,12.58
2022-11-16T12:54:32.628Z,12.38
2022-11-16T12:57:05.893Z,12.35
2022-11-16T12:59:51.169Z,12.29
2022-11-16T13:02:39.916Z,12.08
2022-11-16T13:05:18.090Z,12.03
2022-11-16T13:07:49.982Z,12.03
2022-11-16T13:10:22.199Z,12.01
2022-11-16T13:13:09.006Z,11.74
2022-11-16T13:15:46.199Z,11.94
2022-11-16T13:18:18.209Z,11.84
2022-11-16T13:20:51.893Z,11.87
2022-11-16T13:23:38.385Z,11.77
2022-11-16T13:26:24.013Z,11.67
2022-11-16T13:29:26.820Z,11.80
2022-11-16T13:32:00.006Z,11.72
2022-11-16T13:34:32.491Z,11.77
2022-11-16T13:36:59.937Z,11.83
2022-11-16T13:39:59.624Z,11.74
2022-11-16T13:42:27.835Z,11.69
2022-11-16T13:45:08.203Z,11.67
2022-11-16T13:47:36.656Z,11.66
2022-11-16T13:50:08.084Z,11.75
2022-11-16T13:53:36.547Z,11.72
2022-11-16T13:55:34.774Z,11.69
2022-11-16T13:58:05.373Z,11.69
2022-11-16T14:00:33.378Z,11.81
2022-11-16T14:03:13.186Z,11.73
2022-11-16T14:05:49.257Z,11.69
2022-11-16T14:08:25.516Z,11.58
2022-11-16T14:10:52.955Z,11.41
2022-11-16T14:13:45.583Z,11.37
2022-11-16T14:16:16.471Z,11.37
2022-11-16T14:18:45.558Z,11.29
2022-11-16T14:21:16.309Z,11.33
2022-11-16T14:24:01.982Z,11.41
2022-11-16T14:26:43.350Z,11.28
2022-11-16T14:29:23.259Z,11.32
2022-11-16T14:31:56.799Z,11.32
2022-11-16T14:34:49.795Z,11.28
2022-11-16T14:37:24.373Z,11.19
2022-11-16T14:39:58.384Z,11.17
2022-11-16T14:42:38.201Z,11.14
2022-11-16T14:45:25.733Z,11.03
2022-11-16T14:48:00.049Z,10.93
2022-11-16T14:50:30.151Z,10.82
2022-11-16T14:53:02.824Z,10.71
2022-11-16T14:55:30.705Z,10.62
2022-11-16T14:58:24.639Z,10.51
2022-11-16T15:01:02.312Z,10.41
2022-11-16T15:03:34.768Z,10.38
2022-11-16T15:06:04.891Z,10.30
2022-11-16T15:08:36.400Z,10.30
2022-11-16T15:11:03.945Z,10.27
2022-11-16T15:13:31.709Z,10.26
2022-11-16T15:16:19.956Z,10.32
2022-11-16T15:18:58.275Z,10.36
2022-11-16T15:21:26.123Z,10.36
2022-11-16T15:24:23.352Z,10.39
2022-11-16T15:26:41.124Z,10.40
2022-11-16T15:29:21.481Z,10.43
2022-11-16T15:31:50.028Z,10.41
2022-11-16T15:34:19.558Z,10.31
2022-11-16T15:36:47.930Z,10.23
2022-11-16T15:39:21.471Z,10.14
2022-11-16T15:41:50.011Z,10.08
2022-11-16T15:44:21.019Z,10.03
2022-11-16T15:46:52.735Z,9.93
2022-11-16T15:49:41.900Z,9.86
2022-11-16T15:52:10.355Z,9.82
2022-11-16T15:54:52.548Z,9.79
2022-11-16T15:57:21.926Z,9.71
2022-11-16T15:59:51.618Z,9.66
2022-11-16T16:02:21.445Z,9.67
2022-11-16T16:04:48.984Z,9.67
2022-11-16T16:07:44.825Z,9.68
2022-11-16T16:10:21.579Z,9.65
2022-11-16T16:12:52.264Z,9.61
2022-11-16T16:15:36.803Z,9.56
2022-11-16T16:18:12.501Z,9.51
2022-11-16T16:20:40.078Z,9.47
2022-11-16T16:23:15.200Z,9.43
2022-11-16T16:25:47.520Z,9.38
2022-11-16T16:28:17.689Z,9.38
2022-11-16T16:30:45.232Z,9.34
2022-11-16T16:33:19.622Z,9.32
2022-11-16T16:35:49.765Z,9.29
2022-11-16T16:38:17.347Z,9.22
2022-11-16T16:40:44.886Z,9.22
2022-11-16T16:43:12.412Z,9.16
2022-11-16T16:45:43.448Z,9.14
2022-11-16T16:48:12.620Z,9.09
2022-11-16T16:50:41.015Z,9.07
2022-11-16T16:53:13.169Z,9.08
2022-11-16T16:55:40.920Z,9.02
2022-11-16T16:58:08.509Z,8.98
2022-11-16T17:00:36.054Z,8.93
2022-11-16T17:03:03.523Z,8.95
2022-11-16T17:05:33.840Z,8.82
2022-11-16T17:08:02.192Z,8.86
2022-11-16T17:10:29.672Z,8.84
2022-11-16T17:12:58.264Z,8.80
2022-11-16T17:15:26.227Z,8.79
2022-11-16T17:17:53.796Z,8.82
2022-11-16T17:20:21.314Z,8.77
2022-11-16T17:22:48.784Z,8.76
2022-11-16T17:25:16.289Z,8.77
2022-11-16T17:27:43.747Z,8.76
2022-11-16T17:30:11.974Z,8.70
2022-11-16T17:32:39.460Z,8.71
2022-11-16T17:35:07.118Z,8.71
2022-11-16T17:37:34.558Z,8.69
2022-11-16T17:40:02.048Z,8.65
2022-11-16T17:42:29.498Z,8.63
2022-11-16T17:44:56.948Z,8.63
2022-11-16T17:47:24.402Z,8.67
2022-11-16T17:49:51.893Z,8.65
2022-11-16T17:52:19.375Z,8.68
2022-11-16T17:54:46.817Z,8.67
2022-11-16T17:57:14.312Z,8.68
2022-11-16T17:59:41.878Z,8.74
2022-11-16T18:02:12.393Z,8.78
2022-11-16T18:04:39.965Z,8.73
2022-11-16T18:07:07.480Z,8.73
2022-11-16T18:09:35.150Z,8.71
2022-11-16T18:12:02.700Z,8.69
2022-11-16T18:14:31.282Z,8.67
2022-11-16T18:16:58.769Z,8.63
2022-11-16T18:19:26.260Z,8.61
2022-11-16T18:21:53.670Z,8.65
2022-11-16T18:24:21.100Z,8.65
2022-11-16T18:26:48.530Z,8.63
2022-11-16T18:29:18.590Z,8.62
2022-11-16T18:31:46.046Z,8.58
2022-11-16T18:34:15.245Z,8.60
2022-11-16T18:36:42.722Z,8.56
2022-11-16T18:39:10.197Z,8.52
2022-11-16T18:41:38.229Z,8.55
2022-11-16T18:44:06.209Z,8.56
2022-11-16T18:46:34.098Z,8.57
2022-11-16T18:49:01.679Z,8.60
2022-11-16T18:51:30.005Z,8.68
2022-11-16T18:53:57.705Z,8.72
2022-11-16T18:56:25.719Z,8.78
2022-11-16T18:58:53.793Z,8.82
2022-11-16T19:01:24.504Z,8.89
2022-11-16T19:03:53.752Z,8.94
2022-11-16T19:06:22.189Z,8.98
2022-11-16T19:08:56.318Z,9.03
2022-11-16T19:11:24.893Z,9.04
2022-11-16T19:13:59.963Z,9.01
2022-11-16T19:16:27.819Z,9.06
2022-11-16T19:18:55.259Z,9.09
2022-11-16T19:21:23.303Z,9.09
2022-11-16T19:23:55.546Z,9.09
2022-11-16T19:26:25.798Z,9.09
2022-11-16T19:28:54.592Z,9.11
2022-11-16T19:31:30.241Z,9.18
2022-11-16T19:34:00.178Z,9.21
2022-11-16T19:36:28.991Z,9.22
2022-11-16T19:38:56.935Z,9.20
2022-11-16T19:41:25.598Z,9.16
2022-11-16T19:43:57.208Z,9.21
2022-11-16T19:46:25.389Z,9.19
2022-11-16T19:48:53.662Z,9.19
2022-11-16T19:51:26.632Z,9.22
2022-11-16T19:53:54.716Z,9.23
2022-11-16T19:56:23.992Z,9.21
2022-11-16T19:58:52.390Z,9.18
2022-11-16T20:01:29.257Z,9.15
2022-11-16T20:04:02.151Z,9.21
2022-11-16T20:06:32.394Z,9.23
2022-11-16T20:09:03.888Z,9.18
2022-11-16T20:11:33.792Z,9.20
2022-11-16T20:14:02.505Z,9.21
2022-11-16T20:16:38.328Z,9.22
2022-11-16T20:19:08.163Z,9.23
2022-11-16T20:21:40.570Z,9.16
2022-11-16T20:24:09.619Z,9.20
2022-11-16T20:26:41.385Z,9.23
2022-11-16T20:29:12.262Z,9.19
2022-11-16T20:31:42.497Z,9.25
2022-11-16T20:34:14.744Z,9.19
2022-11-16T20:36:44.397Z,9.20
2022-11-16T20:39:22.076Z,9.20
2022-11-16T20:41:49.730Z,9.23
2022-11-16T20:44:21.138Z,9.21
2022-11-16T20:46:50.532Z,9.22
2022-11-16T20:49:18.069Z,9.26
2022-11-16T20:51:47.630Z,9.26
2022-11-16T20:54:15.400Z,9.28
2022-11-16T20:56:44.389Z,9.24
2022-11-16T20:59:11.870Z,9.28
2022-11-16T21:01:41.488Z,9.30
2022-11-16T21:04:10.798Z,9.29
2022-11-16T21:06:38.363Z,9.30
2022-11-16T21:09:05.910Z,9.30
2022-11-16T21:11:54.773Z,9.26
2022-11-16T21:14:22.613Z,9.37
2022-11-16T21:16:50.308Z,9.33
2022-11-16T21:19:17.928Z,9.40
2022-11-16T21:21:45.421Z,9.43
2022-11-16T21:24:12.956Z,9.41
2022-11-16T21:26:40.515Z,9.51
2022-11-16T21:29:08.049Z,9.53
2022-11-16T21:31:37.318Z,9.54
2022-11-16T21:34:05.819Z,9.57
2022-11-16T21:36:33.856Z,9.59
2022-11-16T21:39:01.506Z,9.61
2022-11-16T21:41:29.318Z,9.64
2022-11-16T21:43:57.230Z,9.65
2022-11-16T21:46:26.443Z,9.70
2022-11-16T21:48:56.396Z,9.73
2022-11-16T21:51:27.352Z,9.81
2022-11-16T21:53:55.267Z,9.82
2022-11-16T21:56:25.088Z,9.80
2022-11-16T21:58:53.772Z,9.88
2022-11-16T22:01:22.156Z,9.93
2022-11-16T22:04:10.458Z,9.92
2022-11-16T22:06:55.390Z,9.85
2022-11-16T22:09:23.094Z,9.87
2022-11-16T22:11:50.573Z,9.93
2022-11-16T22:14:18.076Z,9.92
2022-11-16T22:16:45.672Z,9.95
2022-11-16T22:19:13.215Z,9.94
2022-11-16T22:21:40.682Z,9.90
2022-11-16T22:24:08.510Z,9.84
2022-11-16T22:26:37.906Z,9.82
2022-11-16T22:29:05.417Z,9.76
2022-11-16T22:31:32.999Z,9.71
2022-11-16T22:34:00.494Z,9.62
2022-11-16T22:36:27.958Z,9.53
2022-11-16T22:38:57.043Z,9.46
2022-11-16T22:41:24.548Z,9.52
2022-11-16T22:43:52.042Z,9.43
2022-11-16T22:46:19.547Z,9.35
2022-11-16T22:48:47.852Z,9.36
2022-11-16T22:51:22.584Z,9.21
2022-11-16T22:54:00.576Z,9.23
2022-11-16T22:56:29.781Z,9.16
2022-11-16T22:58:57.606Z,9.15
2022-11-16T23:01:25.745Z,9.07
2022-11-16T23:03:53.321Z,9.10
2022-11-16T23:06:21.275Z,9.13
2022-11-16T23:08:49.374Z,9.10
2022-11-16T23:11:37.125Z,9.08
2022-11-16T23:14:22.777Z,9.07
2022-11-16T23:16:51.009Z,9.08
2022-11-16T23:19:37.995Z,9.06
2022-11-16T23:22:24.385Z,9.02
2022-11-16T23:25:09.792Z,9.03
2022-11-16T23:27:56.166Z,8.99
2022-11-16T23:30:24.305Z,9.01
2022-11-16T23:32:52.331Z,9.01
2022-11-16T23:35:20.023Z,8.97
2022-11-16T23:37:54.486Z,8.96
2022-11-16T23:40:24.427Z,9.02
2022-11-16T23:43:07.406Z,9.00
2022-11-16T23:45:35.001Z,8.95
2022-11-16T23:48:02.550Z,8.94
2022-11-16T23:50:30.075Z,8.99
2022-11-16T23:52:57.546Z,9.04
2022-11-16T23:55:25.035Z,9.07
2022-11-16T23:57:52.509Z,9.06
